sensor_id;sensor_type;location;lat;lon;timestamp;temperature;humidity
12089;DHT22;6107;49.078;8.578;2022-08-25T00:01:00;20.10;91.70
12089;DHT22;6107;49.078;8.578;2022-08-25T00:03:26;19.90;91.70
12089;DHT22;6107;49.078;8.578;2022-08-25T00:05:52;19.80;92.00
12089;DHT22;6107;49.078;8.578;2022-08-25T00:08:18;19.90;91.90
12089;DHT22;6107;49.078;8.578;2022-08-25T00:10:44;20.10;91.50
12089;DHT22;6107;49.078;8.578;2022-08-25T00:13:09;20.20;91.30
12089;DHT22;6107;49.078;8.578;2022-08-25T00:15:36;20.30;91.30
12089;DHT22;6107;49.078;8.578;2022-08-25T00:18:03;20.20;91.30
12089;DHT22;6107;49.078;8.578;2022-08-25T00:20:29;20.20;91.60
12089;DHT22;6107;49.078;8.578;2022-08-25T00:22:55;20.00;91.70
12089;DHT22;6107;49.078;8.578;2022-08-25T00:25:21;19.90;92.00
12089;DHT22;6107;49.078;8.578;2022-08-25T00:27:49;20.10;91.80
12089;DHT22;6107;49.078;8.578;2022-08-25T00:30:16;20.20;91.40
12089;DHT22;6107;49.078;8.578;2022-08-25T00:32:42;20.30;91.10
12089;DHT22;6107;49.078;8.578;2022-08-25T00:35:07;20.20;91.30
12089;DHT22;6107;49.078;8.578;2022-08-25T00:37:33;20.20;91.40
12089;DHT22;6107;49.078;8.578;2022-08-25T00:40:00;20.20;91.30
12089;DHT22;6107;49.078;8.578;2022-08-25T00:42:26;20.20;91.30
12089;DHT22;6107;49.078;8.578;2022-08-25T00:44:51;20.30;91.20
12089;DHT22;6107;49.078;8.578;2022-08-25T00:47:18;20.40;91.20
12089;DHT22;6107;49.078;8.578;2022-08-25T00:49:47;20.50;90.90
12089;DHT22;6107;49.078;8.578;2022-08-25T00:52:17;20.60;90.80
12089;DHT22;6107;49.078;8.578;2022-08-25T00:57:14;20.50;90.70
12089;DHT22;6107;49.078;8.578;2022-08-25T00:59:41;20.50;90.90
12089;DHT22;6107;49.078;8.578;2022-08-25T01:02:08;20.50;91.00
12089;DHT22;6107;49.078;8.578;2022-08-25T01:04:35;20.50;90.80
12089;DHT22;6107;49.078;8.578;2022-08-25T01:07:02;20.50;90.90
12089;DHT22;6107;49.078;8.578;2022-08-25T01:09:29;20.50;91.00
12089;DHT22;6107;49.078;8.578;2022-08-25T01:11:57;20.40;91.00
12089;DHT22;6107;49.078;8.578;2022-08-25T01:14:24;20.50;91.00
12089;DHT22;6107;49.078;8.578;2022-08-25T01:16:51;20.40;91.00
12089;DHT22;6107;49.078;8.578;2022-08-25T01:19:17;20.40;91.10
12089;DHT22;6107;49.078;8.578;2022-08-25T01:21:53;20.40;91.20
12089;DHT22;6107;49.078;8.578;2022-08-25T01:27:08;20.40;91.20
12089;DHT22;6107;49.078;8.578;2022-08-25T01:29:34;20.40;91.30
12089;DHT22;6107;49.078;8.578;2022-08-25T01:32:05;20.40;91.40
12089;DHT22;6107;49.078;8.578;2022-08-25T01:34:33;20.40;91.20
12089;DHT22;6107;49.078;8.578;2022-08-25T01:37:00;20.40;91.30
12089;DHT22;6107;49.078;8.578;2022-08-25T01:39:28;20.40;91.40
12089;DHT22;6107;49.078;8.578;2022-08-25T01:44:31;20.40;91.40
12089;DHT22;6107;49.078;8.578;2022-08-25T01:46:57;20.30;91.40
12089;DHT22;6107;49.078;8.578;2022-08-25T01:49:23;20.20;91.60
12089;DHT22;6107;49.078;8.578;2022-08-25T01:51:59;20.20;91.60
12089;DHT22;6107;49.078;8.578;2022-08-25T01:54:25;20.20;91.80
12089;DHT22;6107;49.078;8.578;2022-08-25T01:56:51;20.20;92.00
12089;DHT22;6107;49.078;8.578;2022-08-25T01:59:18;20.20;91.60
12089;DHT22;6107;49.078;8.578;2022-08-25T02:01:44;20.20;91.60
12089;DHT22;6107;49.078;8.578;2022-08-25T02:04:10;20.20;91.70
12089;DHT22;6107;49.078;8.578;2022-08-25T02:06:37;20.20;91.70
12089;DHT22;6107;49.078;8.578;2022-08-25T02:09:08;20.10;91.80
12089;DHT22;6107;49.078;8.578;2022-08-25T02:11:39;20.10;91.80
12089;DHT22;6107;49.078;8.578;2022-08-25T02:14:07;20.00;91.90
12089;DHT22;6107;49.078;8.578;2022-08-25T02:16:35;20.00;92.20
12089;DHT22;6107;49.078;8.578;2022-08-25T02:19:04;20.00;92.10
12089;DHT22;6107;49.078;8.578;2022-08-25T02:21:31;20.00;92.00
12089;DHT22;6107;49.078;8.578;2022-08-25T02:23:57;19.90;92.20
12089;DHT22;6107;49.078;8.578;2022-08-25T02:26:22;19.90;92.20
12089;DHT22;6107;49.078;8.578;2022-08-25T02:28:49;19.80;92.30
12089;DHT22;6107;49.078;8.578;2022-08-25T02:31:16;19.90;92.30
12089;DHT22;6107;49.078;8.578;2022-08-25T02:33:42;19.90;92.30
12089;DHT22;6107;49.078;8.578;2022-08-25T02:36:07;19.90;92.50
12089;DHT22;6107;49.078;8.578;2022-08-25T02:38:34;19.90;92.40
12089;DHT22;6107;49.078;8.578;2022-08-25T02:41:00;19.80;92.60
12089;DHT22;6107;49.078;8.578;2022-08-25T02:43:32;19.70;92.80
12089;DHT22;6107;49.078;8.578;2022-08-25T02:45:57;19.80;92.70
12089;DHT22;6107;49.078;8.578;2022-08-25T02:48:24;19.70;92.80
12089;DHT22;6107;49.078;8.578;2022-08-25T02:50:50;19.70;92.90
12089;DHT22;6107;49.078;8.578;2022-08-25T02:53:18;19.80;92.70
12089;DHT22;6107;49.078;8.578;2022-08-25T02:55:44;19.80;92.80
12089;DHT22;6107;49.078;8.578;2022-08-25T02:58:09;19.70;92.80
12089;DHT22;6107;49.078;8.578;2022-08-25T03:00:35;19.70;93.00
12089;DHT22;6107;49.078;8.578;2022-08-25T03:03:01;19.70;92.90
12089;DHT22;6107;49.078;8.578;2022-08-25T03:05:27;19.70;92.80
12089;DHT22;6107;49.078;8.578;2022-08-25T03:07:52;19.70;92.90
12089;DHT22;6107;49.078;8.578;2022-08-25T03:12:46;19.60;93.00
12089;DHT22;6107;49.078;8.578;2022-08-25T03:15:13;19.50;93.20
12089;DHT22;6107;49.078;8.578;2022-08-25T03:17:41;19.50;93.70
12089;DHT22;6107;49.078;8.578;2022-08-25T03:20:07;19.50;93.50
12089;DHT22;6107;49.078;8.578;2022-08-25T03:22:33;19.30;93.60
12089;DHT22;6107;49.078;8.578;2022-08-25T03:25:01;19.40;93.60
12089;DHT22;6107;49.078;8.578;2022-08-25T03:27:45;19.40;93.60
12089;DHT22;6107;49.078;8.578;2022-08-25T03:30:11;19.40;93.80
12089;DHT22;6107;49.078;8.578;2022-08-25T03:32:37;19.30;94.10
12089;DHT22;6107;49.078;8.578;2022-08-25T03:35:04;19.20;94.10
12089;DHT22;6107;49.078;8.578;2022-08-25T03:37:30;19.00;94.60
12089;DHT22;6107;49.078;8.578;2022-08-25T03:39:55;18.80;94.90
12089;DHT22;6107;49.078;8.578;2022-08-25T03:42:21;18.90;95.00
12089;DHT22;6107;49.078;8.578;2022-08-25T03:44:46;19.00;94.80
12089;DHT22;6107;49.078;8.578;2022-08-25T03:47:12;19.00;94.80
12089;DHT22;6107;49.078;8.578;2022-08-25T03:49:37;18.80;95.00
12089;DHT22;6107;49.078;8.578;2022-08-25T03:52:03;18.50;95.60
12089;DHT22;6107;49.078;8.578;2022-08-25T03:54:28;18.40;96.00
12089;DHT22;6107;49.078;8.578;2022-08-25T03:56:54;18.50;96.00
12089;DHT22;6107;49.078;8.578;2022-08-25T03:59:20;18.30;96.30
12089;DHT22;6107;49.078;8.578;2022-08-25T04:01:46;18.00;96.70
12089;DHT22;6107;49.078;8.578;2022-08-25T04:04:13;17.90;97.10
12089;DHT22;6107;49.078;8.578;2022-08-25T04:06:39;17.90;97.40
12089;DHT22;6107;49.078;8.578;2022-08-25T04:09:06;18.00;97.40
12089;DHT22;6107;49.078;8.578;2022-08-25T04:11:32;18.10;97.20
12089;DHT22;6107;49.078;8.578;2022-08-25T04:13:59;18.30;96.90
12089;DHT22;6107;49.078;8.578;2022-08-25T04:16:29;18.30;96.80
12089;DHT22;6107;49.078;8.578;2022-08-25T04:18:57;18.50;96.40
12089;DHT22;6107;49.078;8.578;2022-08-25T04:21:23;18.50;96.40
12089;DHT22;6107;49.078;8.578;2022-08-25T04:23:51;18.50;96.50
12089;DHT22;6107;49.078;8.578;2022-08-25T04:26:27;18.60;96.30
12089;DHT22;6107;49.078;8.578;2022-08-25T04:28:53;18.50;96.20
12089;DHT22;6107;49.078;8.578;2022-08-25T04:31:20;18.40;96.50
12089;DHT22;6107;49.078;8.578;2022-08-25T04:33:46;18.40;96.50
12089;DHT22;6107;49.078;8.578;2022-08-25T04:36:13;18.50;96.20
12089;DHT22;6107;49.078;8.578;2022-08-25T04:38:40;18.60;96.10
12089;DHT22;6107;49.078;8.578;2022-08-25T04:41:07;18.60;95.90
12089;DHT22;6107;49.078;8.578;2022-08-25T04:43:35;18.50;96.10
12089;DHT22;6107;49.078;8.578;2022-08-25T04:46:12;18.50;96.20
12089;DHT22;6107;49.078;8.578;2022-08-25T04:48:39;18.40;96.10
12089;DHT22;6107;49.078;8.578;2022-08-25T04:51:11;18.30;96.10
12089;DHT22;6107;49.078;8.578;2022-08-25T04:53:38;18.40;96.10
12089;DHT22;6107;49.078;8.578;2022-08-25T04:56:06;18.30;96.10
12089;DHT22;6107;49.078;8.578;2022-08-25T04:58:32;18.30;96.60
12089;DHT22;6107;49.078;8.578;2022-08-25T05:01:02;18.20;96.70
12089;DHT22;6107;49.078;8.578;2022-08-25T05:03:28;18.20;96.70
12089;DHT22;6107;49.078;8.578;2022-08-25T05:05:55;18.30;96.60
12089;DHT22;6107;49.078;8.578;2022-08-25T05:08:21;18.30;96.50
12089;DHT22;6107;49.078;8.578;2022-08-25T05:10:47;18.30;96.70
12089;DHT22;6107;49.078;8.578;2022-08-25T05:13:12;18.40;96.40
12089;DHT22;6107;49.078;8.578;2022-08-25T05:15:38;18.30;96.50
12089;DHT22;6107;49.078;8.578;2022-08-25T05:18:17;18.40;96.30
12089;DHT22;6107;49.078;8.578;2022-08-25T05:20:43;18.50;96.00
12089;DHT22;6107;49.078;8.578;2022-08-25T05:23:08;18.50;96.10
12089;DHT22;6107;49.078;8.578;2022-08-25T05:25:34;18.50;96.50
12089;DHT22;6107;49.078;8.578;2022-08-25T05:28:00;18.40;96.90
12089;DHT22;6107;49.078;8.578;2022-08-25T05:30:25;18.50;96.90
12089;DHT22;6107;49.078;8.578;2022-08-25T05:32:51;18.60;96.90
12089;DHT22;6107;49.078;8.578;2022-08-25T05:35:16;18.80;97.00
12089;DHT22;6107;49.078;8.578;2022-08-25T05:37:43;18.90;96.30
12089;DHT22;6107;49.078;8.578;2022-08-25T05:40:09;19.10;96.10
12089;DHT22;6107;49.078;8.578;2022-08-25T05:42:34;19.10;96.20
12089;DHT22;6107;49.078;8.578;2022-08-25T05:45:02;19.10;96.40
12089;DHT22;6107;49.078;8.578;2022-08-25T05:47:28;19.10;96.10
12089;DHT22;6107;49.078;8.578;2022-08-25T05:49:53;19.30;95.80
12089;DHT22;6107;49.078;8.578;2022-08-25T05:52:19;19.40;95.90
12089;DHT22;6107;49.078;8.578;2022-08-25T05:54:44;19.40;96.20
12089;DHT22;6107;49.078;8.578;2022-08-25T05:57:10;19.30;96.30
12089;DHT22;6107;49.078;8.578;2022-08-25T05:59:36;19.40;96.00
12089;DHT22;6107;49.078;8.578;2022-08-25T06:02:02;19.50;96.00
12089;DHT22;6107;49.078;8.578;2022-08-25T06:04:46;19.50;96.10
12089;DHT22;6107;49.078;8.578;2022-08-25T06:07:12;19.60;95.70
12089;DHT22;6107;49.078;8.578;2022-08-25T06:09:39;19.70;95.70
12089;DHT22;6107;49.078;8.578;2022-08-25T06:12:05;19.80;95.70
12089;DHT22;6107;49.078;8.578;2022-08-25T06:14:30;19.80;95.60
12089;DHT22;6107;49.078;8.578;2022-08-25T06:16:56;19.90;95.70
12089;DHT22;6107;49.078;8.578;2022-08-25T06:19:21;20.00;95.40
12089;DHT22;6107;49.078;8.578;2022-08-25T06:21:47;20.10;95.40
12089;DHT22;6107;49.078;8.578;2022-08-25T06:24:13;20.10;95.20
12089;DHT22;6107;49.078;8.578;2022-08-25T06:26:39;20.20;94.80
12089;DHT22;6107;49.078;8.578;2022-08-25T06:29:05;20.30;94.70
12089;DHT22;6107;49.078;8.578;2022-08-25T06:31:30;20.40;94.40
12089;DHT22;6107;49.078;8.578;2022-08-25T06:33:56;20.50;95.00
12089;DHT22;6107;49.078;8.578;2022-08-25T06:36:22;20.50;94.50
12089;DHT22;6107;49.078;8.578;2022-08-25T06:38:48;20.70;94.40
12089;DHT22;6107;49.078;8.578;2022-08-25T06:41:14;20.80;94.50
12089;DHT22;6107;49.078;8.578;2022-08-25T06:43:41;20.80;94.20
12089;DHT22;6107;49.078;8.578;2022-08-25T06:46:11;20.90;94.10
12089;DHT22;6107;49.078;8.578;2022-08-25T06:48:38;21.00;94.40
12089;DHT22;6107;49.078;8.578;2022-08-25T06:51:08;21.10;94.10
12089;DHT22;6107;49.078;8.578;2022-08-25T06:53:34;21.20;94.00
12089;DHT22;6107;49.078;8.578;2022-08-25T07:00:52;21.60;93.20
12089;DHT22;6107;49.078;8.578;2022-08-25T07:03:17;21.70;93.40
12089;DHT22;6107;49.078;8.578;2022-08-25T07:05:51;21.80;93.20
12089;DHT22;6107;49.078;8.578;2022-08-25T07:08:17;21.90;93.00
12089;DHT22;6107;49.078;8.578;2022-08-25T07:10:43;22.00;92.70
12089;DHT22;6107;49.078;8.578;2022-08-25T07:13:09;22.00;92.70
12089;DHT22;6107;49.078;8.578;2022-08-25T07:15:39;22.20;92.10
12089;DHT22;6107;49.078;8.578;2022-08-25T07:18:06;22.20;92.40
12089;DHT22;6107;49.078;8.578;2022-08-25T07:20:33;22.30;92.00
12089;DHT22;6107;49.078;8.578;2022-08-25T07:23:00;22.40;92.20
12089;DHT22;6107;49.078;8.578;2022-08-25T07:25:25;22.50;92.20
12089;DHT22;6107;49.078;8.578;2022-08-25T07:27:51;22.60;92.00
12089;DHT22;6107;49.078;8.578;2022-08-25T07:30:17;22.70;91.90
12089;DHT22;6107;49.078;8.578;2022-08-25T07:32:43;22.90;91.70
12089;DHT22;6107;49.078;8.578;2022-08-25T07:35:09;23.00;91.10
12089;DHT22;6107;49.078;8.578;2022-08-25T07:37:42;23.00;91.20
12089;DHT22;6107;49.078;8.578;2022-08-25T07:40:10;23.20;91.30
12089;DHT22;6107;49.078;8.578;2022-08-25T07:42:37;23.50;90.50
12089;DHT22;6107;49.078;8.578;2022-08-25T07:45:04;23.50;90.40
12089;DHT22;6107;49.078;8.578;2022-08-25T07:47:30;23.60;90.70
12089;DHT22;6107;49.078;8.578;2022-08-25T07:49:56;23.70;90.00
12089;DHT22;6107;49.078;8.578;2022-08-25T07:52:22;23.80;90.10
12089;DHT22;6107;49.078;8.578;2022-08-25T07:54:47;23.90;88.40
12089;DHT22;6107;49.078;8.578;2022-08-25T07:57:13;24.10;90.00
12089;DHT22;6107;49.078;8.578;2022-08-25T07:59:42;24.20;88.00
12089;DHT22;6107;49.078;8.578;2022-08-25T08:02:12;24.30;88.20
12089;DHT22;6107;49.078;8.578;2022-08-25T08:04:37;24.50;87.10
12089;DHT22;6107;49.078;8.578;2022-08-25T08:07:03;24.60;86.20
12089;DHT22;6107;49.078;8.578;2022-08-25T08:09:29;24.70;86.90
12089;DHT22;6107;49.078;8.578;2022-08-25T08:11:55;24.90;84.20
12089;DHT22;6107;49.078;8.578;2022-08-25T08:14:22;24.90;85.00
12089;DHT22;6107;49.078;8.578;2022-08-25T08:16:47;25.00;83.70
12089;DHT22;6107;49.078;8.578;2022-08-25T08:19:14;25.10;83.40
12089;DHT22;6107;49.078;8.578;2022-08-25T08:21:40;25.30;84.20
12089;DHT22;6107;49.078;8.578;2022-08-25T08:24:06;25.50;83.50
12089;DHT22;6107;49.078;8.578;2022-08-25T08:26:32;25.70;82.50
12089;DHT22;6107;49.078;8.578;2022-08-25T08:28:58;25.90;81.70
12089;DHT22;6107;49.078;8.578;2022-08-25T08:31:25;25.90;83.00
12089;DHT22;6107;49.078;8.578;2022-08-25T08:33:53;26.10;80.80
12089;DHT22;6107;49.078;8.578;2022-08-25T08:36:20;26.20;81.20
12089;DHT22;6107;49.078;8.578;2022-08-25T08:38:46;26.30;80.80
12089;DHT22;6107;49.078;8.578;2022-08-25T08:44:31;26.50;77.60
12089;DHT22;6107;49.078;8.578;2022-08-25T08:50:29;27.00;77.80
12089;DHT22;6107;49.078;8.578;2022-08-25T08:53:10;26.90;76.10
12089;DHT22;6107;49.078;8.578;2022-08-25T08:55:57;27.10;76.40
12089;DHT22;6107;49.078;8.578;2022-08-25T08:58:35;27.50;77.40
12089;DHT22;6107;49.078;8.578;2022-08-25T09:01:04;27.50;74.80
12089;DHT22;6107;49.078;8.578;2022-08-25T09:03:42;27.70;75.10
12089;DHT22;6107;49.078;8.578;2022-08-25T09:06:19;27.50;73.20
12089;DHT22;6107;49.078;8.578;2022-08-25T09:08:45;27.90;74.20
12089;DHT22;6107;49.078;8.578;2022-08-25T09:14:17;28.40;73.00
12089;DHT22;6107;49.078;8.578;2022-08-25T09:16:47;28.70;72.50
12089;DHT22;6107;49.078;8.578;2022-08-25T09:22:34;28.60;70.80
12089;DHT22;6107;49.078;8.578;2022-08-25T09:25:32;28.90;70.60
12089;DHT22;6107;49.078;8.578;2022-08-25T09:28:18;29.00;69.70
12089;DHT22;6107;49.078;8.578;2022-08-25T09:33:35;29.30;67.90
12089;DHT22;6107;49.078;8.578;2022-08-25T09:36:02;29.50;66.60
12089;DHT22;6107;49.078;8.578;2022-08-25T09:38:28;29.60;66.40
12089;DHT22;6107;49.078;8.578;2022-08-25T09:40:58;29.70;66.20
12089;DHT22;6107;49.078;8.578;2022-08-25T09:46:13;29.70;63.70
12089;DHT22;6107;49.078;8.578;2022-08-25T09:48:48;29.60;66.80
12089;DHT22;6107;49.078;8.578;2022-08-25T09:51:22;29.60;63.60
12089;DHT22;6107;49.078;8.578;2022-08-25T09:56:18;29.70;64.30
12089;DHT22;6107;49.078;8.578;2022-08-25T09:58:43;29.90;62.80
12089;DHT22;6107;49.078;8.578;2022-08-25T10:01:16;30.00;62.30
12089;DHT22;6107;49.078;8.578;2022-08-25T10:06:22;30.50;60.30
12089;DHT22;6107;49.078;8.578;2022-08-25T10:11:38;30.80;60.00
12089;DHT22;6107;49.078;8.578;2022-08-25T10:16:39;30.50;58.80
12089;DHT22;6107;49.078;8.578;2022-08-25T10:19:12;30.40;59.80
12089;DHT22;6107;49.078;8.578;2022-08-25T10:21:40;30.80;60.70
12089;DHT22;6107;49.078;8.578;2022-08-25T10:24:08;30.90;58.00
12089;DHT22;6107;49.078;8.578;2022-08-25T10:26:50;31.00;58.70
12089;DHT22;6107;49.078;8.578;2022-08-25T10:32:30;30.70;59.40
12089;DHT22;6107;49.078;8.578;2022-08-25T10:35:00;30.90;58.10
12089;DHT22;6107;49.078;8.578;2022-08-25T10:37:59;30.50;58.30
12089;DHT22;6107;49.078;8.578;2022-08-25T10:43:32;31.40;57.50
12089;DHT22;6107;49.078;8.578;2022-08-25T10:46:22;31.40;57.30
12089;DHT22;6107;49.078;8.578;2022-08-25T10:49:02;31.50;57.60
12089;DHT22;6107;49.078;8.578;2022-08-25T10:51:38;31.80;57.20
12089;DHT22;6107;49.078;8.578;2022-08-25T10:54:30;32.50;56.40
12089;DHT22;6107;49.078;8.578;2022-08-25T11:05:45;31.80;55.20
12089;DHT22;6107;49.078;8.578;2022-08-25T11:08:39;31.80;54.40
12089;DHT22;6107;49.078;8.578;2022-08-25T11:11:54;31.60;56.10
12089;DHT22;6107;49.078;8.578;2022-08-25T11:14:09;32.10;54.90
12089;DHT22;6107;49.078;8.578;2022-08-25T11:16:39;31.80;53.60
12089;DHT22;6107;49.078;8.578;2022-08-25T11:19:24;31.80;53.90
12089;DHT22;6107;49.078;8.578;2022-08-25T11:24:41;31.20;55.10
12089;DHT22;6107;49.078;8.578;2022-08-25T11:27:23;31.50;55.70
12089;DHT22;6107;49.078;8.578;2022-08-25T11:30:12;31.50;53.00
12089;DHT22;6107;49.078;8.578;2022-08-25T11:32:39;32.20;54.50
12089;DHT22;6107;49.078;8.578;2022-08-25T11:35:07;32.70;52.90
12089;DHT22;6107;49.078;8.578;2022-08-25T11:37:41;33.60;54.00
12089;DHT22;6107;49.078;8.578;2022-08-25T11:43:00;34.00;52.30
12089;DHT22;6107;49.078;8.578;2022-08-25T11:53:45;34.80;51.00
12089;DHT22;6107;49.078;8.578;2022-08-25T11:56:30;34.80;50.10
12089;DHT22;6107;49.078;8.578;2022-08-25T11:58:56;34.40;48.60
12089;DHT22;6107;49.078;8.578;2022-08-25T12:17:42;35.00;47.70
12089;DHT22;6107;49.078;8.578;2022-08-25T12:20:07;34.10;49.00
12089;DHT22;6107;49.078;8.578;2022-08-25T12:25:13;34.40;48.50
12089;DHT22;6107;49.078;8.578;2022-08-25T12:28:06;34.80;48.80
12089;DHT22;6107;49.078;8.578;2022-08-25T12:30:52;34.90;48.40
12089;DHT22;6107;49.078;8.578;2022-08-25T12:33:52;35.50;47.60
12089;DHT22;6107;49.078;8.578;2022-08-25T12:36:30;35.10;47.00
12089;DHT22;6107;49.078;8.578;2022-08-25T12:39:13;34.50;46.70
12089;DHT22;6107;49.078;8.578;2022-08-25T12:41:53;34.30;49.00
12089;DHT22;6107;49.078;8.578;2022-08-25T12:44:43;35.00;47.10
12089;DHT22;6107;49.078;8.578;2022-08-25T12:49:48;35.50;45.10
12089;DHT22;6107;49.078;8.578;2022-08-25T13:00:04;36.40;44.50
12089;DHT22;6107;49.078;8.578;2022-08-25T13:03:06;35.30;45.30
12089;DHT22;6107;49.078;8.578;2022-08-25T13:06:01;34.60;45.60
12089;DHT22;6107;49.078;8.578;2022-08-25T13:09:15;34.30;46.80
12089;DHT22;6107;49.078;8.578;2022-08-25T13:12:01;34.70;46.10
12089;DHT22;6107;49.078;8.578;2022-08-25T13:19:26;35.50;45.20
12089;DHT22;6107;49.078;8.578;2022-08-25T13:21:53;35.70;43.30
12089;DHT22;6107;49.078;8.578;2022-08-25T13:24:29;36.00;44.00
12089;DHT22;6107;49.078;8.578;2022-08-25T13:26:59;36.50;42.90
12089;DHT22;6107;49.078;8.578;2022-08-25T13:29:28;36.20;43.80
12089;DHT22;6107;49.078;8.578;2022-08-25T13:31:58;36.40;44.50
12089;DHT22;6107;49.078;8.578;2022-08-25T13:34:30;36.50;43.30
12089;DHT22;6107;49.078;8.578;2022-08-25T13:37:01;36.20;45.00
12089;DHT22;6107;49.078;8.578;2022-08-25T13:39:47;35.40;43.50
12089;DHT22;6107;49.078;8.578;2022-08-25T13:42:14;35.60;44.10
12089;DHT22;6107;49.078;8.578;2022-08-25T13:44:41;36.60;44.00
12089;DHT22;6107;49.078;8.578;2022-08-25T13:47:11;36.70;42.60
12089;DHT22;6107;49.078;8.578;2022-08-25T13:49:39;36.90;42.30
12089;DHT22;6107;49.078;8.578;2022-08-25T13:52:06;36.00;41.10
12089;DHT22;6107;49.078;8.578;2022-08-25T13:54:38;36.50;43.80
12089;DHT22;6107;49.078;8.578;2022-08-25T13:57:23;36.80;41.70
12089;DHT22;6107;49.078;8.578;2022-08-25T13:59:52;35.80;42.20
12089;DHT22;6107;49.078;8.578;2022-08-25T14:02:48;34.90;42.60
12089;DHT22;6107;49.078;8.578;2022-08-25T14:05:27;35.70;43.60
12089;DHT22;6107;49.078;8.578;2022-08-25T14:07:55;36.00;42.20
12089;DHT22;6107;49.078;8.578;2022-08-25T14:10:42;36.00;42.60
12089;DHT22;6107;49.078;8.578;2022-08-25T14:15:52;36.20;42.50
12089;DHT22;6107;49.078;8.578;2022-08-25T14:18:22;36.30;42.70
12089;DHT22;6107;49.078;8.578;2022-08-25T14:20:52;36.90;41.70
12089;DHT22;6107;49.078;8.578;2022-08-25T14:23:21;36.70;40.90
12089;DHT22;6107;49.078;8.578;2022-08-25T14:25:49;35.60;41.00
12089;DHT22;6107;49.078;8.578;2022-08-25T14:28:18;35.00;42.40
12089;DHT22;6107;49.078;8.578;2022-08-25T14:31:06;35.60;42.80
12089;DHT22;6107;49.078;8.578;2022-08-25T14:33:36;36.20;42.60
12089;DHT22;6107;49.078;8.578;2022-08-25T14:36:02;36.60;40.60
12089;DHT22;6107;49.078;8.578;2022-08-25T14:38:29;36.10;41.80
12089;DHT22;6107;49.078;8.578;2022-08-25T14:40:55;36.00;41.40
12089;DHT22;6107;49.078;8.578;2022-08-25T14:43:20;36.10;41.90
12089;DHT22;6107;49.078;8.578;2022-08-25T14:45:47;36.40;43.10
12089;DHT22;6107;49.078;8.578;2022-08-25T14:48:24;36.50;42.40
12089;DHT22;6107;49.078;8.578;2022-08-25T14:50:52;36.80;41.20
12089;DHT22;6107;49.078;8.578;2022-08-25T14:53:19;36.00;42.00
12089;DHT22;6107;49.078;8.578;2022-08-25T14:55:44;36.80;41.10
12089;DHT22;6107;49.078;8.578;2022-08-25T14:58:10;36.90;41.80
12089;DHT22;6107;49.078;8.578;2022-08-25T15:00:43;37.00;40.60
12089;DHT22;6107;49.078;8.578;2022-08-25T15:03:12;37.40;40.00
12089;DHT22;6107;49.078;8.578;2022-08-25T15:05:39;37.50;39.90
12089;DHT22;6107;49.078;8.578;2022-08-25T15:08:05;37.00;39.40
12089;DHT22;6107;49.078;8.578;2022-08-25T15:10:49;37.40;41.10
12089;DHT22;6107;49.078;8.578;2022-08-25T15:13:15;37.10;39.90
12089;DHT22;6107;49.078;8.578;2022-08-25T15:15:43;37.10;39.80
12089;DHT22;6107;49.078;8.578;2022-08-25T15:18:09;37.40;39.40
12089;DHT22;6107;49.078;8.578;2022-08-25T15:20:34;37.70;38.50
12089;DHT22;6107;49.078;8.578;2022-08-25T15:23:00;37.90;39.50
12089;DHT22;6107;49.078;8.578;2022-08-25T15:25:26;37.50;38.70
12089;DHT22;6107;49.078;8.578;2022-08-25T15:27:51;36.90;39.30
12089;DHT22;6107;49.078;8.578;2022-08-25T15:30:18;36.90;40.70
12089;DHT22;6107;49.078;8.578;2022-08-25T15:32:43;36.60;39.30
12089;DHT22;6107;49.078;8.578;2022-08-25T15:35:09;36.50;39.30
12089;DHT22;6107;49.078;8.578;2022-08-25T15:37:35;36.80;40.60
12089;DHT22;6107;49.078;8.578;2022-08-25T15:40:00;37.20;39.40
12089;DHT22;6107;49.078;8.578;2022-08-25T15:42:26;37.10;39.80
12089;DHT22;6107;49.078;8.578;2022-08-25T15:44:52;37.50;39.80
12089;DHT22;6107;49.078;8.578;2022-08-25T15:47:19;37.70;38.90
12089;DHT22;6107;49.078;8.578;2022-08-25T15:49:44;37.20;38.80
12089;DHT22;6107;49.078;8.578;2022-08-25T15:52:10;37.40;38.80
12089;DHT22;6107;49.078;8.578;2022-08-25T15:54:38;37.00;38.80
12089;DHT22;6107;49.078;8.578;2022-08-25T15:57:03;37.00;39.20
12089;DHT22;6107;49.078;8.578;2022-08-25T15:59:29;37.10;38.90
12089;DHT22;6107;49.078;8.578;2022-08-25T16:01:55;36.90;39.70
12089;DHT22;6107;49.078;8.578;2022-08-25T16:04:22;36.90;39.30
12089;DHT22;6107;49.078;8.578;2022-08-25T16:06:49;36.80;39.80
12089;DHT22;6107;49.078;8.578;2022-08-25T16:09:14;36.60;38.90
12089;DHT22;6107;49.078;8.578;2022-08-25T16:11:40;36.10;39.70
12089;DHT22;6107;49.078;8.578;2022-08-25T16:14:08;36.50;39.80
12089;DHT22;6107;49.078;8.578;2022-08-25T16:16:33;36.70;39.40
12089;DHT22;6107;49.078;8.578;2022-08-25T16:18:59;36.60;39.40
12089;DHT22;6107;49.078;8.578;2022-08-25T16:21:29;36.70;40.20
12089;DHT22;6107;49.078;8.578;2022-08-25T16:24:00;36.20;40.70
12089;DHT22;6107;49.078;8.578;2022-08-25T16:26:27;35.90;40.60
12089;DHT22;6107;49.078;8.578;2022-08-25T16:28:53;36.10;39.50
12089;DHT22;6107;49.078;8.578;2022-08-25T16:31:19;36.00;39.30
12089;DHT22;6107;49.078;8.578;2022-08-25T16:33:45;36.30;39.50
12089;DHT22;6107;49.078;8.578;2022-08-25T16:36:22;36.50;40.70
12089;DHT22;6107;49.078;8.578;2022-08-25T16:38:49;36.40;39.30
12089;DHT22;6107;49.078;8.578;2022-08-25T16:41:20;36.20;39.90
12089;DHT22;6107;49.078;8.578;2022-08-25T16:43:46;36.00;39.60
12089;DHT22;6107;49.078;8.578;2022-08-25T16:46:14;35.60;39.20
12089;DHT22;6107;49.078;8.578;2022-08-25T16:48:41;35.20;39.30
12089;DHT22;6107;49.078;8.578;2022-08-25T16:51:08;35.30;40.20
12089;DHT22;6107;49.078;8.578;2022-08-25T16:53:33;35.00;40.40
12089;DHT22;6107;49.078;8.578;2022-08-25T16:56:18;34.90;39.80
12089;DHT22;6107;49.078;8.578;2022-08-25T16:58:56;35.00;40.50
12089;DHT22;6107;49.078;8.578;2022-08-25T17:01:23;34.80;40.80
12089;DHT22;6107;49.078;8.578;2022-08-25T17:03:55;34.60;41.30
12089;DHT22;6107;49.078;8.578;2022-08-25T17:06:23;34.40;41.80
12089;DHT22;6107;49.078;8.578;2022-08-25T17:08:49;34.10;42.50
12089;DHT22;6107;49.078;8.578;2022-08-25T17:11:19;34.30;42.40
12089;DHT22;6107;49.078;8.578;2022-08-25T17:13:51;33.70;42.10
12089;DHT22;6107;49.078;8.578;2022-08-25T17:16:19;33.50;43.70
12089;DHT22;6107;49.078;8.578;2022-08-25T17:18:46;33.60;43.60
12089;DHT22;6107;49.078;8.578;2022-08-25T17:21:13;32.40;45.00
12089;DHT22;6107;49.078;8.578;2022-08-25T17:23:41;31.60;47.00
12089;DHT22;6107;49.078;8.578;2022-08-25T17:26:10;30.90;48.00
12089;DHT22;6107;49.078;8.578;2022-08-25T17:28:36;29.90;49.70
12089;DHT22;6107;49.078;8.578;2022-08-25T17:31:02;29.80;49.80
12089;DHT22;6107;49.078;8.578;2022-08-25T17:33:28;29.80;50.40
12089;DHT22;6107;49.078;8.578;2022-08-25T17:35:55;29.80;50.50
12089;DHT22;6107;49.078;8.578;2022-08-25T17:38:22;29.50;50.60
12089;DHT22;6107;49.078;8.578;2022-08-25T17:40:53;30.10;49.80
12089;DHT22;6107;49.078;8.578;2022-08-25T17:43:20;30.60;49.70
12089;DHT22;6107;49.078;8.578;2022-08-25T17:45:46;29.40;51.50
12089;DHT22;6107;49.078;8.578;2022-08-25T17:48:12;28.50;53.40